createdAt,value
2019-03-17T00:01:56.723Z,79.64
2019-03-17T00:04:15.441Z,79.87
2019-03-17T00:06:44.238Z,79.83
2019-03-17T00:09:13.419Z,80.27
2019-03-17T00:11:42.219Z,79.44
2019-03-17T00:14:11.004Z,79.25
2019-03-17T00:16:39.798Z,79.71
2019-03-17T00:19:08.592Z,79.74
2019-03-17T00:21:37.399Z,79.97
2019-03-17T00:24:06.563Z,80.12
2019-03-17T00:26:35.328Z,79.88
2019-03-17T00:29:04.204Z,79.71
2019-03-17T00:31:34.333Z,79.89
2019-03-17T00:34:03.146Z,79.67
2019-03-17T00:36:31.935Z,79.62
2019-03-17T00:39:00.988Z,79.70
2019-03-17T00:41:31.815Z,79.38
2019-03-17T00:44:00.735Z,79.78
2019-03-17T00:46:29.513Z,79.54
2019-03-17T00:48:58.556Z,79.76
2019-03-17T00:51:27.382Z,79.73
2019-03-17T00:53:56.538Z,79.01
2019-03-17T00:56:25.574Z,79.49
2019-03-17T00:58:54.417Z,79.28
2019-03-17T01:01:23.273Z,79.49
2019-03-17T01:03:52.062Z,79.19
2019-03-17T01:17:22.290Z,79.79
2019-03-17T01:19:51.194Z,79.34
2019-03-17T01:22:19.966Z,79.10
2019-03-17T01:24:48.835Z,78.91
2019-03-17T01:27:17.608Z,79.44
2019-03-17T01:29:46.383Z,79.12
2019-03-17T01:32:15.811Z,78.81
2019-03-17T01:34:44.697Z,79.06
2019-03-17T01:37:13.610Z,79.62
2019-03-17T01:39:42.838Z,79.63
2019-03-17T01:42:11.650Z,79.00
2019-03-17T01:44:40.597Z,79.58
2019-03-17T01:47:09.567Z,79.51
2019-03-17T01:49:38.429Z,79.28
2019-03-17T01:52:07.408Z,79.27
2019-03-17T01:54:36.272Z,79.02
2019-03-17T01:57:05.199Z,79.29
2019-03-17T01:59:33.997Z,79.27
2019-03-17T02:02:02.818Z,79.25
2019-03-17T02:04:31.662Z,79.17
2019-03-17T02:07:00.555Z,79.20
2019-03-17T02:09:29.344Z,79.23
2019-03-17T02:11:58.227Z,78.91
2019-03-17T02:14:27.051Z,78.88
2019-03-17T02:16:55.864Z,78.99
2019-03-17T02:19:25.171Z,79.26
2019-03-17T02:21:54.040Z,79.56
2019-03-17T02:24:22.815Z,79.81
2019-03-17T02:26:51.706Z,79.27
2019-03-17T02:29:20.544Z,79.87
2019-03-17T02:31:49.341Z,79.59
2019-03-17T02:34:18.211Z,79.70
2019-03-17T02:36:47.109Z,79.73
2019-03-17T02:39:16.002Z,79.33
2019-03-17T02:41:44.817Z,79.29
2019-03-17T02:44:13.594Z,79.69
2019-03-17T02:46:42.457Z,79.21
2019-03-17T02:49:11.248Z,79.34
2019-03-17T02:51:40.148Z,79.66
2019-03-17T02:54:08.946Z,79.61
2019-03-17T02:56:37.733Z,79.51
2019-03-17T02:59:06.743Z,79.30
2019-03-17T03:01:35.568Z,79.44
2019-03-17T03:04:04.641Z,79.58
2019-03-17T03:06:33.436Z,79.56
2019-03-17T03:09:02.596Z,79.59
2019-03-17T03:11:31.399Z,80.14
2019-03-17T03:14:00.283Z,79.28
2019-03-17T03:16:29.078Z,79.36
2019-03-17T03:18:57.871Z,80.02
2019-03-17T03:21:26.673Z,80.43
2019-03-17T03:23:55.526Z,80.94
2019-03-17T03:26:24.365Z,81.06
2019-03-17T03:28:53.215Z,80.92
2019-03-17T03:31:22.022Z,80.96
2019-03-17T03:33:50.906Z,81.15
2019-03-17T03:36:19.731Z,81.03
2019-03-17T03:38:48.546Z,80.82
2019-03-17T03:41:17.361Z,80.51
2019-03-17T03:43:46.241Z,81.08
2019-03-17T03:46:15.077Z,80.66
2019-03-17T03:48:43.869Z,81.02
2019-03-17T03:51:12.704Z,81.37
2019-03-17T03:53:41.505Z,81.47
2019-03-17T03:56:10.642Z,81.81
2019-03-17T03:58:39.559Z,82.37
2019-03-17T04:01:08.337Z,82.84
2019-03-17T04:03:37.245Z,82.42
2019-03-17T04:06:06.046Z,82.39
2019-03-17T04:08:34.888Z,83.09
2019-03-17T04:11:03.699Z,84.04
2019-03-17T04:13:32.519Z,83.76
2019-03-17T04:16:01.350Z,84.64
2019-03-17T04:18:30.153Z,84.80
2019-03-17T04:20:58.941Z,84.38
2019-03-17T04:23:27.772Z,84.97
2019-03-17T04:25:56.585Z,84.99
2019-03-17T04:28:25.401Z,85.42
2019-03-17T04:30:54.214Z,85.38
2019-03-17T04:33:23.017Z,85.50
2019-03-17T04:35:51.814Z,85.29
2019-03-17T04:38:20.631Z,85.20
2019-03-17T04:40:49.448Z,83.96
2019-03-17T04:43:18.261Z,84.19
2019-03-17T04:45:47.145Z,83.23
2019-03-17T04:48:15.945Z,82.35
2019-03-17T04:50:44.779Z,82.28
2019-03-17T04:53:13.568Z,81.57
2019-03-17T04:55:42.363Z,80.02
2019-03-17T04:58:11.687Z,79.75
2019-03-17T05:00:40.782Z,80.07
2019-03-17T05:03:09.588Z,79.41
2019-03-17T05:05:38.390Z,79.32
2019-03-17T05:08:07.218Z,79.08
2019-03-17T05:10:36.105Z,78.52
2019-03-17T05:13:05.150Z,78.64
2019-03-17T05:15:33.935Z,78.15
2019-03-17T05:18:02.844Z,78.23
2019-03-17T05:20:31.727Z,78.75
2019-03-17T05:23:00.765Z,79.72
2019-03-17T05:25:29.694Z,80.91
2019-03-17T05:27:58.805Z,81.32
2019-03-17T05:30:27.585Z,81.34
2019-03-17T05:32:56.417Z,81.78
2019-03-17T05:35:27.107Z,81.18
2019-03-17T05:37:56.000Z,81.76
2019-03-17T05:40:24.786Z,81.35
2019-03-17T05:42:53.671Z,81.47
2019-03-17T05:45:22.514Z,81.89
2019-03-17T05:47:51.366Z,82.62
2019-03-17T05:50:20.173Z,82.81
2019-03-17T05:52:48.997Z,83.74
2019-03-17T05:55:19.076Z,84.44
2019-03-17T05:57:47.897Z,84.58
2019-03-17T06:00:19.119Z,85.60
2019-03-17T06:02:47.871Z,86.96
2019-03-17T06:05:16.787Z,86.98
2019-03-17T06:07:45.733Z,87.72
2019-03-17T06:10:14.674Z,87.88
2019-03-17T06:12:47.027Z,88.43
2019-03-17T06:15:15.840Z,88.36
2019-03-17T06:17:44.751Z,88.01
2019-03-17T06:20:13.708Z,87.79
2019-03-17T06:22:43.220Z,87.89
2019-03-17T06:25:12.274Z,87.92
2019-03-17T06:27:41.151Z,87.61
2019-03-17T06:30:10.382Z,87.94
2019-03-17T06:32:39.136Z,88.31
2019-03-17T06:35:08.144Z,88.57
2019-03-17T06:37:37.116Z,88.87
2019-03-17T06:40:06.589Z,89.08
2019-03-17T06:42:35.524Z,89.41
2019-03-17T06:45:04.710Z,89.80
2019-03-17T06:47:33.548Z,90.16
2019-03-17T06:50:02.418Z,89.56
2019-03-17T06:52:31.224Z,90.10
2019-03-17T06:55:00.050Z,90.14
2019-03-17T06:57:28.844Z,90.78
2019-03-17T06:59:57.679Z,92.25
2019-03-17T07:02:26.563Z,90.89
2019-03-17T07:04:55.344Z,91.18
2019-03-17T07:07:28.349Z,91.62
2019-03-17T07:09:57.111Z,92.27
2019-03-17T07:12:25.928Z,93.74
2019-03-17T07:14:54.760Z,93.97
2019-03-17T07:17:23.584Z,93.83
2019-03-17T07:19:52.393Z,93.43
2019-03-17T07:22:21.211Z,93.68
2019-03-17T07:24:50.022Z,93.95
2019-03-17T07:27:18.822Z,93.87
2019-03-17T07:29:49.488Z,93.74
2019-03-17T07:32:18.204Z,94.34
2019-03-17T07:34:47.046Z,93.87
2019-03-17T07:37:15.886Z,93.50
2019-03-17T07:39:44.679Z,92.61
2019-03-17T07:42:13.907Z,92.67
2019-03-17T07:44:50.003Z,92.66
2019-03-17T07:47:18.788Z,92.85
2019-03-17T07:49:47.593Z,93.15
2019-03-17T07:52:16.575Z,93.25
2019-03-17T07:54:55.287Z,92.74
2019-03-17T07:57:24.161Z,93.21
2019-03-17T07:59:52.989Z,93.33
2019-03-17T08:02:21.809Z,92.73
2019-03-17T08:04:50.708Z,92.82
2019-03-17T08:07:19.612Z,92.48
2019-03-17T08:09:48.424Z,91.66
2019-03-17T08:12:17.220Z,91.20
2019-03-17T08:14:46.355Z,92.17
2019-03-17T08:17:15.223Z,91.75
2019-03-17T08:19:44.041Z,92.29
2019-03-17T08:22:13.491Z,92.18
2019-03-17T08:24:42.308Z,91.70
2019-03-17T08:27:11.170Z,92.00
2019-03-17T08:29:39.983Z,91.56
2019-03-17T08:32:08.788Z,92.58
2019-03-17T08:34:37.658Z,91.29
2019-03-17T08:37:06.425Z,90.76
2019-03-17T08:39:35.487Z,90.63
2019-03-17T08:42:04.592Z,91.57
2019-03-17T08:44:33.542Z,91.52
2019-03-17T08:47:02.456Z,90.83
2019-03-17T08:49:31.299Z,91.20
2019-03-17T08:52:00.121Z,90.75
2019-03-17T08:54:28.954Z,91.54
2019-03-17T08:56:57.879Z,91.40
2019-03-17T08:59:26.674Z,90.95
2019-03-17T09:01:55.492Z,91.32
2019-03-17T09:04:24.306Z,90.25
2019-03-17T09:06:53.198Z,90.35
2019-03-17T09:09:35.340Z,90.35
2019-03-17T09:12:07.901Z,90.92
2019-03-17T09:14:39.913Z,90.72
2019-03-17T09:17:14.456Z,90.75
2019-03-17T09:19:39.686Z,89.73
2019-03-17T09:22:08.503Z,89.63
2019-03-17T09:24:37.266Z,89.29
2019-03-17T09:27:06.160Z,88.81
2019-03-17T09:29:35.008Z,88.97
2019-03-17T09:32:03.801Z,88.24
2019-03-17T09:34:32.716Z,87.43
2019-03-17T09:37:17.763Z,86.99
2019-03-17T09:39:49.660Z,85.81
2019-03-17T09:42:18.655Z,85.85
2019-03-17T09:44:47.509Z,86.32
2019-03-17T09:47:16.465Z,86.37
2019-03-17T09:49:45.773Z,86.39
2019-03-17T09:52:16.670Z,85.27
2019-03-17T09:55:40.239Z,85.70
2019-03-17T09:58:09.194Z,85.05
2019-03-17T10:01:06.057Z,84.75
2019-03-17T10:03:34.828Z,85.28
2019-03-17T10:06:04.491Z,84.69
2019-03-17T10:08:38.212Z,83.61
2019-03-17T10:11:13.038Z,84.46
2019-03-17T10:13:41.948Z,83.46
2019-03-17T10:16:10.856Z,81.66
2019-03-17T10:18:40.764Z,81.89
2019-03-17T10:21:10.978Z,81.62
2019-03-17T10:23:56.542Z,81.64
2019-03-17T10:27:11.285Z,81.98
2019-03-17T10:29:40.125Z,81.84
2019-03-17T10:32:09.063Z,81.33
2019-03-17T10:34:37.928Z,80.54
2019-03-17T10:37:06.713Z,80.99
2019-03-17T10:39:35.495Z,80.41
2019-03-17T10:42:04.616Z,79.88
2019-03-17T10:44:33.453Z,79.45
2019-03-17T10:47:02.250Z,77.74
2019-03-17T10:49:31.102Z,76.74
2019-03-17T10:51:59.955Z,75.88
2019-03-17T10:54:28.867Z,75.97
2019-03-17T10:56:57.716Z,76.27
2019-03-17T10:59:27.870Z,75.96
2019-03-17T11:01:56.690Z,75.65
2019-03-17T11:04:25.498Z,74.98
2019-03-17T11:06:54.322Z,75.64
2019-03-17T11:09:25.591Z,76.25
2019-03-17T11:12:02.316Z,75.30
2019-03-17T11:14:31.182Z,75.11
2019-03-17T11:17:00.057Z,74.78
2019-03-17T11:19:29.314Z,74.00
2019-03-17T11:21:58.458Z,73.71
2019-03-17T11:24:30.187Z,73.02
2019-03-17T11:26:59.015Z,72.70
2019-03-17T11:29:27.909Z,72.91
2019-03-17T11:31:56.744Z,72.63
2019-03-17T11:34:25.715Z,71.05
2019-03-17T11:36:57.696Z,70.27
2019-03-17T11:39:37.224Z,70.16
2019-03-17T11:41:58.317Z,70.78
2019-03-17T11:44:48.747Z,70.79
2019-03-17T11:47:17.637Z,71.53
2019-03-17T11:49:46.535Z,70.42
2019-03-17T11:52:15.585Z,69.64
2019-03-17T11:54:44.541Z,70.26
2019-03-17T11:59:08.074Z,67.62
2019-03-17T12:00:04.059Z,68.32
2019-03-17T12:02:33.681Z,68.77
2019-03-17T12:05:02.509Z,72.29
2019-03-17T12:11:17.909Z,80.40
2019-03-17T12:13:46.767Z,79.68
2019-03-17T12:16:15.650Z,80.84
2019-03-17T12:18:44.684Z,79.09
2019-03-17T12:21:13.683Z,74.77
2019-03-17T12:23:42.568Z,71.90
2019-03-17T12:26:11.376Z,74.50
2019-03-17T12:28:40.349Z,72.81
2019-03-17T12:31:09.219Z,71.35
2019-03-17T12:33:38.408Z,70.96
2019-03-17T12:36:07.231Z,71.11
2019-03-17T12:38:36.027Z,72.41
2019-03-17T12:41:04.935Z,71.27
2019-03-17T12:43:33.996Z,72.13
2019-03-17T12:46:02.860Z,71.83
2019-03-17T12:49:15.751Z,72.01
2019-03-17T12:51:44.661Z,72.32
2019-03-17T12:54:17.649Z,72.51
2019-03-17T12:56:46.516Z,72.82
2019-03-17T12:59:27.498Z,72.42
2019-03-17T13:02:03.724Z,71.64
2019-03-17T13:04:33.688Z,69.54
2019-03-17T13:07:23.446Z,69.04
2019-03-17T13:09:52.493Z,68.43
2019-03-17T13:12:47.422Z,68.98
2019-03-17T13:15:18.112Z,68.14
2019-03-17T13:17:46.994Z,67.54
2019-03-17T13:20:16.501Z,66.17
2019-03-17T13:22:45.786Z,67.86
2019-03-17T13:25:14.901Z,68.18
2019-03-17T13:27:43.859Z,69.04
2019-03-17T13:30:13.096Z,68.45
2019-03-17T13:32:43.099Z,68.96
2019-03-17T13:35:32.448Z,71.38
2019-03-17T13:47:33.826Z,80.78
2019-03-17T13:50:03.280Z,81.80
2019-03-17T13:52:32.987Z,82.89
2019-03-17T13:55:02.007Z,83.34
2019-03-17T13:57:31.051Z,82.72
2019-03-17T14:00:02.982Z,82.42
2019-03-17T14:02:37.821Z,83.44
2019-03-17T14:05:08.945Z,83.42
2019-03-17T14:07:37.823Z,81.14
2019-03-17T14:10:14.171Z,81.17
2019-03-17T14:12:41.505Z,80.82
2019-03-17T14:15:11.517Z,80.46
2019-03-17T14:17:40.433Z,75.83
2019-03-17T14:20:11.247Z,73.14
2019-03-17T14:22:41.129Z,73.02
2019-03-17T14:25:13.379Z,70.94
2019-03-17T14:27:42.667Z,68.68
2019-03-17T14:30:13.266Z,68.56
2019-03-17T14:32:42.408Z,69.97
2019-03-17T14:35:11.660Z,69.71
2019-03-17T14:37:40.587Z,70.17
2019-03-17T14:40:10.709Z,69.91
2019-03-17T14:42:40.743Z,75.76
2019-03-17T14:45:10.572Z,81.30
2019-03-17T14:47:39.497Z,83.24
2019-03-17T14:50:11.295Z,83.77
2019-03-17T14:52:41.222Z,84.24
2019-03-17T14:55:11.049Z,85.74
2019-03-17T14:57:39.876Z,85.78
2019-03-17T15:00:11.804Z,86.20
2019-03-17T15:02:40.614Z,87.47
2019-03-17T15:05:09.656Z,87.12
2019-03-17T15:07:38.542Z,87.54
2019-03-17T15:10:09.663Z,87.42
2019-03-17T15:12:38.470Z,86.16
2019-03-17T15:15:09.078Z,87.06
2019-03-17T15:17:37.852Z,88.00
2019-03-17T15:20:08.479Z,88.18
2019-03-17T15:22:37.377Z,88.59
2019-03-17T15:25:06.943Z,86.48
2019-03-17T15:27:36.102Z,85.46
2019-03-17T15:30:05.978Z,84.98
2019-03-17T15:32:35.084Z,82.89
2019-03-17T15:35:04.188Z,83.04
2019-03-17T15:37:32.998Z,84.64
2019-03-17T15:40:01.871Z,84.00
2019-03-17T15:42:30.688Z,84.61
2019-03-17T15:44:59.517Z,83.88
2019-03-17T15:47:28.579Z,83.51
2019-03-17T15:49:57.523Z,83.31
2019-03-17T15:52:26.349Z,83.60
2019-03-17T15:54:55.221Z,83.63
2019-03-17T15:57:31.964Z,80.00
2019-03-17T16:00:00.945Z,67.46
2019-03-17T16:02:29.812Z,64.42
2019-03-17T16:04:58.657Z,54.59
2019-03-17T16:07:27.628Z,76.21
2019-03-17T16:09:56.706Z,78.64
2019-03-17T16:12:25.655Z,80.72
2019-03-17T16:14:55.703Z,80.95
2019-03-17T16:17:24.729Z,80.72
2019-03-17T16:19:54.639Z,80.15
2019-03-17T16:22:23.661Z,80.10
2019-03-17T16:24:53.627Z,81.02
2019-03-17T16:27:22.626Z,79.85
2019-03-17T16:29:53.745Z,80.98
2019-03-17T16:32:22.768Z,81.35
2019-03-17T16:34:51.701Z,81.05
2019-03-17T16:37:20.694Z,80.57
2019-03-17T16:39:49.596Z,81.00
2019-03-17T16:42:18.497Z,82.42
2019-03-17T16:44:47.354Z,82.15
2019-03-17T16:47:16.290Z,82.39
2019-03-17T16:49:45.371Z,82.32
2019-03-17T16:52:14.234Z,79.91
2019-03-17T16:54:43.384Z,78.41
2019-03-17T16:57:13.349Z,78.70
2019-03-17T16:59:47.943Z,77.32
2019-03-17T17:02:16.764Z,80.02
2019-03-17T17:04:45.783Z,75.63
2019-03-17T17:07:14.669Z,74.52
2019-03-17T17:09:43.507Z,75.15
2019-03-17T17:12:12.485Z,77.87
2019-03-17T17:14:41.283Z,78.68
2019-03-17T17:17:10.067Z,79.42
2019-03-17T17:19:39.102Z,78.88
2019-03-17T17:22:07.948Z,79.66
2019-03-17T17:24:36.772Z,80.75
2019-03-17T17:27:05.665Z,80.76
2019-03-17T17:29:34.550Z,81.17
2019-03-17T17:32:03.525Z,81.02
2019-03-17T17:34:32.430Z,80.87
2019-03-17T17:37:05.812Z,80.47
2019-03-17T17:39:36.830Z,81.61
2019-03-17T17:42:09.945Z,78.29
2019-03-17T17:44:36.311Z,77.34
2019-03-17T17:47:05.269Z,77.39
2019-03-17T17:49:34.166Z,76.72
2019-03-17T17:52:03.738Z,77.64
2019-03-17T17:54:35.204Z,76.89
2019-03-17T17:57:04.097Z,77.62
2019-03-17T17:59:33.036Z,76.67
2019-03-17T18:02:01.872Z,75.59
2019-03-17T18:04:30.744Z,76.66
2019-03-17T18:06:59.798Z,75.17
2019-03-17T18:09:28.852Z,75.54
2019-03-17T18:11:57.847Z,76.78
2019-03-17T18:14:26.849Z,74.43
2019-03-17T18:16:55.819Z,74.48
2019-03-17T18:19:25.788Z,74.72
2019-03-17T18:21:54.694Z,74.59
2019-03-17T18:24:23.930Z,74.19
2019-03-17T18:26:52.900Z,73.00
2019-03-17T18:29:21.721Z,73.27
2019-03-17T18:31:50.673Z,73.31
2019-03-17T18:34:19.636Z,74.17
2019-03-17T18:36:49.626Z,74.17
2019-03-17T18:39:18.632Z,74.36
2019-03-17T18:41:47.564Z,73.02
2019-03-17T18:44:16.512Z,74.41
2019-03-17T18:46:45.677Z,73.82
2019-03-17T18:49:14.772Z,74.38
2019-03-17T18:51:43.784Z,73.89
2019-03-17T18:54:15.102Z,74.54
2019-03-17T18:56:44.386Z,74.00
2019-03-17T18:59:19.145Z,73.82
2019-03-17T19:01:48.112Z,75.05
2019-03-17T19:04:17.112Z,75.79
2019-03-17T19:06:46.157Z,73.96
2019-03-17T19:09:14.943Z,73.49
2019-03-17T19:11:43.810Z,72.79
2019-03-17T19:14:12.865Z,72.95
2019-03-17T19:16:42.883Z,72.86
2019-03-17T19:19:13.633Z,72.84
2019-03-17T19:21:42.817Z,72.70
2019-03-17T19:24:13.103Z,71.55
2019-03-17T19:26:43.362Z,72.04
2019-03-17T19:29:15.155Z,71.74
2019-03-17T19:31:45.191Z,71.42
2019-03-17T19:34:14.311Z,72.12
2019-03-17T19:36:43.181Z,71.04
2019-03-17T19:39:12.724Z,71.75
2019-03-17T19:41:42.474Z,71.97
2019-03-17T19:44:11.484Z,72.51
2019-03-17T19:46:40.372Z,72.39
2019-03-17T19:49:09.193Z,71.78
2019-03-17T19:51:38.103Z,72.99
2019-03-17T19:54:07.094Z,72.47
2019-03-17T19:56:36.113Z,72.29
2019-03-17T19:59:07.045Z,72.73
2019-03-17T20:01:36.995Z,73.84
2019-03-17T20:04:05.933Z,73.90
2019-03-17T20:06:34.913Z,74.36
2019-03-17T20:09:05.851Z,74.24
2019-03-17T20:11:35.196Z,74.42
2019-03-17T20:14:04.098Z,75.00
2019-03-17T20:16:32.932Z,75.02
2019-03-17T20:19:01.740Z,75.61
2019-03-17T20:21:33.596Z,75.42
2019-03-17T20:24:02.394Z,76.20
2019-03-17T20:26:31.355Z,75.77
2019-03-17T20:29:00.250Z,76.00
2019-03-17T20:31:29.281Z,76.04
2019-03-17T20:33:58.298Z,76.42
2019-03-17T20:36:27.223Z,76.54
2019-03-17T20:38:56.161Z,76.25
2019-03-17T20:41:26.009Z,75.81
2019-03-17T20:43:56.065Z,76.52
2019-03-17T20:46:25.330Z,76.85
2019-03-17T20:48:54.161Z,77.16
2019-03-17T20:51:23.001Z,77.11
2019-03-17T20:53:51.884Z,77.02
2019-03-17T20:56:20.812Z,77.70
2019-03-17T20:58:49.690Z,76.53
2019-03-17T21:01:18.660Z,76.75
2019-03-17T21:03:47.483Z,75.86
2019-03-17T21:06:16.514Z,76.46
2019-03-17T21:08:45.552Z,77.07
2019-03-17T21:11:14.714Z,76.46
2019-03-17T21:13:47.025Z,76.35
2019-03-17T21:16:14.317Z,75.91
2019-03-17T21:18:43.212Z,76.65
2019-03-17T21:21:12.376Z,76.36
2019-03-17T21:23:41.324Z,76.44
2019-03-17T21:26:10.106Z,76.31
2019-03-17T21:28:39.097Z,76.17
2019-03-17T21:31:08.093Z,76.12
2019-03-17T21:33:40.138Z,76.59
2019-03-17T21:36:07.658Z,76.37
2019-03-17T21:38:36.754Z,76.81
2019-03-17T21:41:07.200Z,76.64
2019-03-17T21:43:36.400Z,76.45
2019-03-17T21:46:05.755Z,76.64
2019-03-17T21:48:37.580Z,76.84
2019-03-17T21:51:06.542Z,77.12
2019-03-17T21:53:35.362Z,77.31
2019-03-17T21:56:04.313Z,77.29
2019-03-17T21:58:33.197Z,77.34
2019-03-17T22:01:02.040Z,77.85
2019-03-17T22:03:30.933Z,77.90
2019-03-17T22:05:59.827Z,77.53
2019-03-17T22:08:28.792Z,77.37
2019-03-17T22:10:58.793Z,77.25
2019-03-17T22:13:27.809Z,77.21
2019-03-17T22:15:56.610Z,77.54
2019-03-17T22:18:25.686Z,77.36
2019-03-17T22:20:56.623Z,77.33
2019-03-17T22:23:25.603Z,77.57
2019-03-17T22:25:54.889Z,77.39
2019-03-17T22:28:23.805Z,77.70
2019-03-17T22:30:52.704Z,77.33
2019-03-17T22:33:21.672Z,77.35
2019-03-17T22:35:50.448Z,77.44
2019-03-17T22:38:19.268Z,77.17
2019-03-17T22:40:48.140Z,77.14
2019-03-17T22:43:16.943Z,77.45
2019-03-17T22:45:45.755Z,77.66
2019-03-17T22:48:14.571Z,77.42
2019-03-17T22:50:43.600Z,77.18
2019-03-17T22:53:12.412Z,77.72
2019-03-17T22:55:41.196Z,77.14
2019-03-17T22:58:10.019Z,76.90
2019-03-17T23:00:41.354Z,77.17
2019-03-17T23:03:11.237Z,77.38
2019-03-17T23:05:40.257Z,77.13
2019-03-17T23:08:09.117Z,77.37
2019-03-17T23:10:38.101Z,77.52
2019-03-17T23:13:06.982Z,76.74
2019-03-17T23:15:36.106Z,77.41
2019-03-17T23:18:05.220Z,77.50
2019-03-17T23:20:34.484Z,76.53
2019-03-17T23:23:03.439Z,77.17
2019-03-17T23:25:32.330Z,77.41
2019-03-17T23:28:01.279Z,77.38
2019-03-17T23:30:30.274Z,77.14
2019-03-17T23:32:59.185Z,77.48
2019-03-17T23:35:28.329Z,77.87
2019-03-17T23:37:57.283Z,78.35
2019-03-17T23:40:26.095Z,79.72
2019-03-17T23:42:55.021Z,81.15
2019-03-17T23:45:23.950Z,83.05
2019-03-17T23:47:52.822Z,84.02
2019-03-17T23:50:21.649Z,85.97
2019-03-17T23:52:50.519Z,86.26
2019-03-17T23:55:19.442Z,86.47
2019-03-17T23:57:48.379Z,85.81
